NORTHEAST SUFFOLK  -  Special Weather Statement Special Weather Statement        NORTHERN NASSAU  -  Special Weather Statement Special Weather Statement        NORTHWEST SUFFOLK  -  Special Weather Statement Special Weather Statement        SOUTHEAST SUFFOLK  -  Special Weather Statement Special Weather Statement        SOUTHERN NASSAU  -  Special Weather Statement Special Weather Statement        SOUTHWEST SUFFOLK  -  Special Weather Statement Special Weather Statement      

Active alerts

Northern Nassau
  Details for Northern Nassau Special Weather Statement
Southern Nassau
  Details for Southern Nassau Special Weather Statement
Northwest Suffolk
  Details for Northwest Suffolk Special Weather Statement
Southwest Suffolk
  Details for Southwest Suffolk Special Weather Statement
Northeast Suffolk
  Details for Northeast Suffolk Special Weather Statement
Southeast Suffolk
  Details for Southeast Suffolk Special Weather Statement


WXM80 ListenWXM80 Stop

You find our weather info also at:

UK Metoffice

WeatherCloud

Weather Underground

Northeastern Weather Network

AWEKAS

Citizen Weather Observer Program (CWOP)

HAMweather, WeatherForYou, PWS Weather


Weather Underground History page Text

Daily Summary for February 1, 2016 Units:  English    Metric   Both
« Previous Day
Next Day »
Daily Weekly Monthly Yearly Custom
  High: Low: Average:
Temperature: 58.6 °F 41.1 °F 48.8 °F
Dew Point: 44.9 °F 31.0 °F 40.1 °F
Humidity: 90 % 56 % 73 %
Wind Speed: 10.9 mph 0.0 mph 4 mph
Wind Gust: 15.0 mph - -
Wind:- - SW
Pressure: 30.07 in 29.70 in -
Precipitation: 0.00 in    
Historical Graphs
 
 
Tabular Data for February 1, 2016
Time Temperature Dew Point Pressure Wind Wind Speed Wind Gust Humidity Rainfall Rate (Hourly)
00:04 47.0 °F 42.1 °F 29.77 in West 2.9 mph 6.0 mph 83 % 0.00 in
00:09 46.9 °F 41.7 °F 29.77 in NW 2.9 mph 4.6 mph 82 % 0.00 in
00:15 46.9 °F 42.0 °F 29.77 in WSW 2.0 mph 4.6 mph 83 % 0.00 in
00:20 46.7 °F 41.8 °F 29.77 in SSW 5.9 mph 5.9 mph 83 % 0.00 in
00:25 46.5 °F 41.6 °F 29.77 in SSW 2.4 mph 3.5 mph 83 % 0.00 in
00:30 46.4 °F 41.5 °F 29.77 in SW 2.6 mph 3.5 mph 83 % 0.00 in
00:35 46.1 °F 41.2 °F 29.76 in SSW 1.7 mph 3.5 mph 83 % 0.00 in
00:40 45.9 °F 41.3 °F 29.76 in SSW 1.8 mph 3.5 mph 84 % 0.00 in
00:45 45.7 °F 41.1 °F 29.76 in SSW 1.2 mph 2.3 mph 84 % 0.00 in
00:50 45.5 °F 40.9 °F 29.76 in SW 1.5 mph 3.5 mph 84 % 0.00 in
00:55 45.4 °F 40.8 °F 29.76 in SW 1.0 mph 1.2 mph 84 % 0.00 in
01:00 45.2 °F 41.0 °F 29.76 in SSW 1.3 mph 3.5 mph 85 % 0.00 in
01:06 44.9 °F 40.7 °F 29.76 in SSW 0.7 mph 3.5 mph 85 % 0.00 in
01:11 44.7 °F 40.8 °F 29.75 in SW 1.7 mph 3.5 mph 86 % 0.00 in
01:16 44.6 °F 40.7 °F 29.75 in SW 0.5 mph 3.5 mph 86 % 0.00 in
01:21 44.5 °F 40.6 °F 29.75 in South 0.7 mph 3.5 mph 86 % 0.00 in
01:26 44.3 °F 40.7 °F 29.75 in SSW 1.7 mph 3.5 mph 87 % 0.00 in
01:31 44.2 °F 40.6 °F 29.74 in South 1.5 mph 3.5 mph 87 % 0.00 in
01:36 44.1 °F 40.5 °F 29.75 in SW 3.1 mph 6.9 mph 87 % 0.00 in
01:41 44.0 °F 40.7 °F 29.74 in SW 2.6 mph 4.0 mph 88 % 0.00 in
01:46 44.0 °F 40.7 °F 29.74 in SSW 3.9 mph 10.0 mph 88 % 0.00 in
01:51 43.9 °F 40.6 °F 29.74 in SW 3.4 mph 5.0 mph 88 % 0.00 in
01:57 43.9 °F 40.6 °F 29.74 in SSW 1.1 mph 4.6 mph 88 % 0.00 in
02:02 43.9 °F 40.6 °F 29.74 in SSW 2.3 mph 4.0 mph 88 % 0.00 in
02:07 43.8 °F 40.5 °F 29.74 in SSW 2.2 mph 3.5 mph 88 % 0.00 in
02:12 43.8 °F 40.5 °F 29.74 in SSW 0.2 mph 2.3 mph 88 % 0.00 in
02:17 43.8 °F 40.5 °F 29.74 in SW 2.3 mph 6.0 mph 88 % 0.00 in
02:22 43.7 °F 40.7 °F 29.74 in South 3.7 mph 5.8 mph 89 % 0.00 in
02:27 43.6 °F 40.6 °F 29.73 in SW 3.4 mph 8.1 mph 89 % 0.00 in
02:32 43.6 °F 40.6 °F 29.73 in South 2.5 mph 3.5 mph 89 % 0.00 in
02:37 43.6 °F 40.6 °F 29.73 in SW 3.8 mph 6.9 mph 89 % 0.00 in
02:42 43.6 °F 40.6 °F 29.73 in SSW 2.0 mph 6.9 mph 89 % 0.00 in
02:48 43.5 °F 40.5 °F 29.72 in SSE 4.0 mph 6.9 mph 89 % 0.00 in
02:53 43.5 °F 40.5 °F 29.73 in SSW 4.0 mph 8.1 mph 89 % 0.00 in
02:58 43.5 °F 40.8 °F 29.73 in SSE 3.1 mph 6.9 mph 90 % 0.00 in
03:03 43.4 °F 40.7 °F 29.73 in SSW 5.0 mph 9.2 mph 90 % 0.00 in
03:08 43.3 °F 40.3 °F 29.72 in SW 4.7 mph 6.9 mph 89 % 0.00 in
03:13 43.3 °F 40.6 °F 29.72 in SW 3.7 mph 7.0 mph 90 % 0.00 in
03:18 43.3 °F 40.6 °F 29.72 in South 4.1 mph 8.1 mph 90 % 0.00 in
03:23 43.3 °F 40.6 °F 29.72 in South 4.2 mph 10.4 mph 90 % 0.00 in
03:28 43.3 °F 40.6 °F 29.72 in South 5.2 mph 6.9 mph 90 % 0.00 in
03:33 43.4 °F 40.4 °F 29.72 in SSW 3.7 mph 5.8 mph 89 % 0.00 in
03:39 43.4 °F 40.7 °F 29.71 in South 4.3 mph 8.1 mph 90 % 0.00 in
03:44 43.4 °F 40.7 °F 29.71 in SW 4.5 mph 6.9 mph 90 % 0.00 in
03:49 43.5 °F 40.8 °F 29.71 in SSE 5.8 mph 8.1 mph 90 % 0.00 in
03:54 43.5 °F 40.8 °F 29.71 in SSW 3.6 mph 5.8 mph 90 % 0.00 in
03:59 43.5 °F 40.8 °F 29.71 in SW 3.8 mph 6.9 mph 90 % 0.00 in
04:04 43.5 °F 40.5 °F 29.71 in SSW 5.5 mph 9.2 mph 89 % 0.00 in
04:09 43.5 °F 40.5 °F 29.70 in South 4.8 mph 7.0 mph 89 % 0.00 in
04:14 43.6 °F 40.9 °F 29.70 in SSW 5.0 mph 9.0 mph 90 % 0.00 in
04:19 43.6 °F 40.9 °F 29.70 in SSW 4.3 mph 11.5 mph 90 % 0.00 in
04:24 43.7 °F 41.0 °F 29.70 in South 5.7 mph 9.0 mph 90 % 0.00 in
04:30 43.7 °F 40.7 °F 29.70 in South 4.7 mph 8.1 mph 89 % 0.00 in
04:35 43.8 °F 40.8 °F 29.70 in SSW 5.2 mph 8.1 mph 89 % 0.00 in
04:40 43.8 °F 40.8 °F 29.71 in SW 6.4 mph 10.4 mph 89 % 0.00 in
04:45 43.9 °F 40.9 °F 29.72 in SSW 6.4 mph 11.5 mph 89 % 0.00 in
04:50 44.0 °F 40.7 °F 29.71 in SSW 4.4 mph 9.0 mph 88 % 0.00 in
04:55 44.0 °F 40.7 °F 29.71 in SW 3.1 mph 6.9 mph 88 % 0.00 in
05:00 44.1 °F 40.8 °F 29.72 in SW 5.6 mph 10.4 mph 88 % 0.00 in
05:05 44.1 °F 40.8 °F 29.71 in WSW 6.4 mph 8.0 mph 88 % 0.00 in
05:10 44.2 °F 40.6 °F 29.72 in SSW 4.8 mph 9.2 mph 87 % 0.00 in
05:15 44.3 °F 40.7 °F 29.71 in SSW 4.0 mph 7.0 mph 87 % 0.00 in
05:21 44.3 °F 40.4 °F 29.71 in SW 5.1 mph 9.0 mph 86 % 0.00 in
05:26 44.4 °F 40.5 °F 29.72 in SW 6.4 mph 11.5 mph 86 % 0.00 in
05:31 44.6 °F 40.7 °F 29.71 in SW 5.3 mph 9.2 mph 86 % 0.00 in
05:36 44.8 °F 40.6 °F 29.71 in SSW 3.0 mph 6.9 mph 85 % 0.00 in
05:41 45.1 °F 40.9 °F 29.71 in SW 4.4 mph 7.0 mph 85 % 0.00 in
05:46 45.2 °F 40.7 °F 29.72 in SSW 5.3 mph 8.0 mph 84 % 0.00 in
05:51 45.4 °F 40.8 °F 29.72 in SW 3.4 mph 5.8 mph 84 % 0.00 in
05:56 45.4 °F 40.8 °F 29.72 in SW 5.2 mph 8.0 mph 84 % 0.00 in
06:01 45.4 °F 40.5 °F 29.72 in SSW 6.9 mph 10.0 mph 83 % 0.00 in
06:07 45.5 °F 40.6 °F 29.72 in SSW 2.0 mph 5.8 mph 83 % 0.00 in
06:12 45.6 °F 40.7 °F 29.72 in SW 3.7 mph 6.9 mph 83 % 0.00 in
06:17 45.6 °F 40.7 °F 29.73 in SSW 2.8 mph 5.8 mph 83 % 0.00 in
06:22 45.6 °F 40.7 °F 29.73 in SW 3.5 mph 4.6 mph 83 % 0.00 in
06:27 45.6 °F 40.7 °F 29.73 in SSW 3.5 mph 5.0 mph 83 % 0.00 in
06:32 45.6 °F 40.4 °F 29.73 in WSW 6.1 mph 9.2 mph 82 % 0.00 in
06:37 45.7 °F 40.5 °F 29.73 in SSW 4.1 mph 7.0 mph 82 % 0.00 in
06:42 45.6 °F 40.4 °F 29.73 in SSW 2.9 mph 11.5 mph 82 % 0.00 in
06:47 45.6 °F 40.4 °F 29.73 in SSW 5.1 mph 10.0 mph 82 % 0.00 in
06:52 45.7 °F 40.5 °F 29.73 in SSW 4.8 mph 8.1 mph 82 % 0.00 in
06:58 45.7 °F 40.5 °F 29.73 in SSW 4.6 mph 8.1 mph 82 % 0.00 in
07:03 45.6 °F 40.4 °F 29.73 in South 4.6 mph 5.8 mph 82 % 0.00 in
07:08 45.6 °F 40.4 °F 29.73 in SW 4.6 mph 6.9 mph 82 % 0.00 in
07:18 45.5 °F 40.3 °F 29.74 in SSW 4.9 mph 8.1 mph 82 % 0.00 in
07:23 45.5 °F 40.3 °F 29.74 in SW 8.3 mph 15.0 mph 82 % 0.00 in
07:28 45.6 °F 40.4 °F 29.74 in SW 5.5 mph 11.0 mph 82 % 0.00 in
07:33 45.9 °F 40.7 °F 29.74 in SSW 4.2 mph 6.9 mph 82 % 0.00 in
07:38 46.1 °F 40.9 °F 29.74 in SW 6.3 mph 9.2 mph 82 % 0.00 in
07:43 46.4 °F 40.9 °F 29.74 in SSW 5.6 mph 8.1 mph 81 % 0.00 in
07:49 46.7 °F 41.2 °F 29.74 in SSW 4.0 mph 5.8 mph 81 % 0.00 in
07:54 46.9 °F 41.1 °F 29.75 in SW 5.2 mph 10.0 mph 80 % 0.00 in
08:04 47.6 °F 41.4 °F 29.75 in SW 3.9 mph 6.9 mph 79 % 0.00 in
08:09 48.0 °F 41.8 °F 29.75 in SSW 6.6 mph 10.4 mph 79 % 0.00 in
08:14 48.4 °F 41.5 °F 29.75 in SW 4.9 mph 6.0 mph 77 % 0.00 in
08:19 48.8 °F 41.9 °F 29.75 in SSW 3.3 mph 6.9 mph 77 % 0.00 in
08:24 49.0 °F 41.8 °F 29.75 in SW 4.8 mph 8.1 mph 76 % 0.00 in
08:29 49.3 °F 41.7 °F 29.75 in SW 6.0 mph 10.4 mph 75 % 0.00 in
08:34 49.7 °F 42.1 °F 29.75 in SW 5.3 mph 8.1 mph 75 % 0.00 in
08:40 49.9 °F 41.9 °F 29.75 in SSW 3.8 mph 5.8 mph 74 % 0.00 in
08:45 50.1 °F 42.1 °F 29.75 in SW 3.9 mph 6.9 mph 74 % 0.00 in
08:50 50.4 °F 42.4 °F 29.76 in SSW 3.9 mph 6.9 mph 74 % 0.00 in
08:55 50.7 °F 42.4 °F 29.76 in SSW 4.4 mph 8.1 mph 73 % 0.00 in
09:00 50.9 °F 42.6 °F 29.76 in SSW 5.2 mph 6.9 mph 73 % 0.00 in
09:05 51.2 °F 42.5 °F 29.76 in WSW 3.5 mph 5.8 mph 72 % 0.00 in
09:15 51.9 °F 42.8 °F 29.76 in SW 2.4 mph 6.9 mph 71 % 0.00 in
09:20 52.3 °F 42.8 °F 29.76 in SW 2.8 mph 5.0 mph 70 % 0.00 in
09:25 52.8 °F 42.9 °F 29.76 in WSW 1.8 mph 5.0 mph 69 % 0.00 in
09:31 53.2 °F 43.3 °F 29.76 in SW 4.5 mph 5.0 mph 69 % 0.00 in
09:36 53.5 °F 42.8 °F 29.76 in SW 4.2 mph 11.5 mph 67 % 0.00 in
09:41 53.7 °F 43.0 °F 29.76 in West 1.8 mph 9.2 mph 67 % 0.00 in
09:46 54.2 °F 43.5 °F 29.76 in SSW 3.7 mph 6.0 mph 67 % 0.00 in
09:51 54.9 °F 43.7 °F 29.76 in West 4.7 mph 8.0 mph 66 % 0.00 in
09:56 55.7 °F 43.7 °F 29.76 in WSW 5.2 mph 10.4 mph 64 % 0.00 in
10:01 56.1 °F 43.3 °F 29.77 in WSW 7.8 mph 14.0 mph 62 % 0.00 in
10:06 56.2 °F 43.3 °F 29.77 in WSW 4.4 mph 11.5 mph 62 % 0.00 in
10:11 56.2 °F 43.3 °F 29.77 in West 4.7 mph 11.5 mph 62 % 0.00 in
10:16 56.2 °F 43.3 °F 29.77 in SW 8.6 mph 11.5 mph 62 % 0.00 in
10:22 56.1 °F 43.3 °F 29.77 in SW 6.7 mph 9.2 mph 62 % 0.00 in
10:27 55.9 °F 43.1 °F 29.77 in SSW 6.8 mph 10.4 mph 62 % 0.00 in
10:32 55.7 °F 42.9 °F 29.77 in West 5.3 mph 12.7 mph 62 % 0.00 in
10:37 55.8 °F 43.4 °F 29.77 in West 6.2 mph 12.7 mph 63 % 0.00 in
10:42 56.1 °F 43.3 °F 29.77 in SW 6.8 mph 11.5 mph 62 % 0.00 in
10:47 56.5 °F 43.6 °F 29.77 in SW 7.2 mph 10.4 mph 62 % 0.00 in
10:52 57.0 °F 43.7 °F 29.77 in NW 4.8 mph 12.0 mph 61 % 0.00 in
10:57 57.5 °F 43.7 °F 29.77 in WSW 7.7 mph 12.0 mph 60 % 0.00 in
11:02 57.9 °F 43.7 °F 29.76 in WSW 8.4 mph 11.5 mph 59 % 0.00 in
11:07 58.3 °F 44.0 °F 29.76 in West 10.9 mph 14.0 mph 59 % 0.00 in
11:13 58.6 °F 44.3 °F 29.76 in SW 5.9 mph 15.0 mph 59 % 0.00 in
11:18 58.5 °F 44.2 °F 29.76 in WSW 7.7 mph 11.5 mph 59 % 0.00 in
11:23 58.3 °F 44.0 °F 29.76 in West 5.5 mph 12.7 mph 59 % 0.00 in
11:28 58.2 °F 43.9 °F 29.77 in WSW 5.0 mph 10.4 mph 59 % 0.00 in
11:38 57.8 °F 44.4 °F 29.77 in SW 2.5 mph 6.9 mph 61 % 0.00 in
11:43 57.9 °F 44.5 °F 29.77 in WSW 6.1 mph 9.2 mph 61 % 0.00 in
11:48 57.9 °F 44.5 °F 29.76 in WSW 7.3 mph 11.5 mph 61 % 0.00 in
11:58 57.7 °F 44.3 °F 29.76 in WSW 7.8 mph 12.7 mph 61 % 0.00 in
12:04 57.7 °F 44.3 °F 29.77 in WSW 4.9 mph 9.0 mph 61 % 0.00 in
12:09 57.7 °F 44.3 °F 29.76 in NW 8.0 mph 11.5 mph 61 % 0.00 in
12:14 57.7 °F 44.3 °F 29.76 in SSW 4.9 mph 10.4 mph 61 % 0.00 in
12:19 57.6 °F 44.2 °F 29.76 in WSW 7.4 mph 11.5 mph 61 % 0.00 in
12:24 57.5 °F 44.6 °F 29.76 in WSW 4.4 mph 11.0 mph 62 % 0.00 in
12:29 57.5 °F 44.6 °F 29.76 in WSW 6.6 mph 10.4 mph 62 % 0.00 in
12:34 57.4 °F 44.5 °F 29.76 in West 6.3 mph 10.4 mph 62 % 0.00 in
12:39 57.4 °F 44.5 °F 29.76 in NW 2.8 mph 7.0 mph 62 % 0.00 in
12:44 57.6 °F 44.7 °F 29.76 in SW 6.6 mph 9.2 mph 62 % 0.00 in
12:55 57.6 °F 44.2 °F 29.75 in WSW 4.1 mph 9.2 mph 61 % 0.00 in
13:00 57.6 °F 44.2 °F 29.75 in WSW 4.5 mph 10.4 mph 61 % 0.00 in
13:05 57.5 °F 44.1 °F 29.76 in WSW 3.2 mph 5.8 mph 61 % 0.00 in
13:10 57.5 °F 44.6 °F 29.76 in WSW 5.4 mph 8.1 mph 62 % 0.00 in
13:15 57.6 °F 44.7 °F 29.76 in WSW 5.7 mph 9.2 mph 62 % 0.00 in
13:20 57.8 °F 44.9 °F 29.76 in SW 3.0 mph 4.6 mph 62 % 0.00 in
13:25 57.9 °F 44.5 °F 29.76 in West 4.2 mph 7.0 mph 61 % 0.00 in
13:30 58.0 °F 44.6 °F 29.76 in WSW 2.8 mph 6.9 mph 61 % 0.00 in
13:35 58.1 °F 44.7 °F 29.76 in West 3.7 mph 9.2 mph 61 % 0.00 in
13:40 58.2 °F 44.8 °F 29.76 in SW 3.8 mph 6.9 mph 61 % 0.00 in
13:46 58.2 °F 44.8 °F 29.77 in SW 4.1 mph 8.1 mph 61 % 0.00 in
13:51 58.1 °F 44.7 °F 29.76 in WNW 1.9 mph 4.6 mph 61 % 0.00 in
13:56 58.0 °F 44.6 °F 29.77 in West 3.7 mph 9.2 mph 61 % 0.00 in
14:01 57.7 °F 44.3 °F 29.77 in WSW 3.6 mph 6.9 mph 61 % 0.00 in
14:06 57.6 °F 44.2 °F 29.77 in WSW 4.2 mph 6.9 mph 61 % 0.00 in
14:11 57.5 °F 44.6 °F 29.77 in WNW 1.8 mph 3.5 mph 62 % 0.00 in
14:16 57.4 °F 44.9 °F 29.77 in West 3.2 mph 6.9 mph 63 % 0.00 in
14:21 57.2 °F 44.7 °F 29.78 in WSW 2.9 mph 8.1 mph 63 % 0.00 in
14:26 57.0 °F 44.5 °F 29.77 in WSW 2.4 mph 4.0 mph 63 % 0.00 in
14:31 56.8 °F 44.3 °F 29.78 in WNW 1.0 mph 5.8 mph 63 % 0.00 in
14:37 56.7 °F 44.2 °F 29.78 in West 5.2 mph 6.0 mph 63 % 0.00 in
14:42 56.5 °F 44.0 °F 29.79 in WNW 2.5 mph 5.8 mph 63 % 0.00 in
14:47 56.2 °F 43.3 °F 29.79 in NW 3.1 mph 6.9 mph 62 % 0.00 in
14:57 55.3 °F 42.9 °F 29.80 in WNW 2.6 mph 4.6 mph 63 % 0.00 in
15:02 55.0 °F 43.0 °F 29.80 in West 3.4 mph 6.0 mph 64 % 0.00 in
15:07 54.7 °F 42.8 °F 29.80 in NW 2.4 mph 5.8 mph 64 % 0.00 in
15:12 54.5 °F 42.6 °F 29.80 in WNW 2.8 mph 4.6 mph 64 % 0.00 in
15:17 54.3 °F 42.4 °F 29.80 in West 2.9 mph 5.8 mph 64 % 0.00 in
15:22 54.1 °F 42.2 °F 29.81 in WNW 2.2 mph 3.5 mph 64 % 0.00 in
15:28 53.9 °F 42.0 °F 29.81 in West 5.6 mph 8.0 mph 64 % 0.00 in
15:33 53.8 °F 40.7 °F 29.81 in NNW 6.0 mph 10.0 mph 61 % 0.00 in
15:38 53.9 °F 40.3 °F 29.82 in WSW 2.3 mph 8.1 mph 60 % 0.00 in
15:43 53.9 °F 39.5 °F 29.82 in NW 4.5 mph 8.1 mph 58 % 0.00 in
15:48 53.8 °F 38.9 °F 29.82 in WNW 4.2 mph 5.8 mph 57 % 0.00 in
15:53 53.8 °F 38.5 °F 29.82 in WNW 5.7 mph 9.0 mph 56 % 0.00 in
15:58 53.6 °F 38.3 °F 29.83 in NW 4.5 mph 9.2 mph 56 % 0.00 in
16:03 53.5 °F 38.6 °F 29.83 in WNW 5.1 mph 9.2 mph 57 % 0.00 in
16:08 53.4 °F 38.5 °F 29.84 in WNW 6.9 mph 10.4 mph 57 % 0.00 in
16:13 53.2 °F 39.2 °F 29.84 in WNW 4.4 mph 10.0 mph 59 % 0.00 in
16:19 52.9 °F 39.0 °F 29.84 in WNW 4.9 mph 6.9 mph 59 % 0.00 in
16:24 52.6 °F 39.1 °F 29.84 in NW 4.9 mph 8.1 mph 60 % 0.00 in
16:29 52.3 °F 38.8 °F 29.85 in West 2.3 mph 6.9 mph 60 % 0.00 in
16:34 51.9 °F 38.4 °F 29.85 in WNW 4.1 mph 7.0 mph 60 % 0.00 in
16:39 51.6 °F 39.4 °F 29.86 in WSW 2.4 mph 3.5 mph 63 % 0.00 in
16:44 51.3 °F 39.5 °F 29.85 in WSW 0.7 mph 2.3 mph 64 % 0.00 in
16:49 51.2 °F 40.2 °F 29.85 in WSW 1.1 mph 2.3 mph 66 % 0.00 in
16:54 50.9 °F 41.1 °F 29.85 in SW 1.5 mph 2.3 mph 69 % 0.00 in
17:04 50.3 °F 40.1 °F 29.85 in Calm     68 % 0.00 in
17:10 50.0 °F 41.0 °F 29.86 in WSW 0.4 mph 2.3 mph 71 % 0.00 in
17:15 49.7 °F 41.0 °F 29.86 in WSW 0.8 mph 1.2 mph 72 % 0.00 in
17:20 49.5 °F 40.5 °F 29.86 in WSW 0.6 mph 3.5 mph 71 % 0.00 in
17:25 49.2 °F 40.2 °F 29.86 in West 2.0 mph 4.0 mph 71 % 0.00 in
17:35 48.8 °F 37.6 °F 29.88 in West 3.7 mph 5.8 mph 65 % 0.00 in
17:40 48.7 °F 37.8 °F 29.89 in West 3.2 mph 4.6 mph 66 % 0.00 in
17:50 48.6 °F 38.1 °F 29.89 in WNW 1.9 mph 5.8 mph 67 % 0.00 in
17:55 48.5 °F 38.0 °F 29.89 in West 1.6 mph 4.6 mph 67 % 0.00 in
18:01 48.4 °F 37.9 °F 29.89 in West 1.6 mph 3.5 mph 67 % 0.00 in
18:06 48.3 °F 37.8 °F 29.90 in West 1.0 mph 2.3 mph 67 % 0.00 in
18:11 48.2 °F 38.5 °F 29.90 in West 0.7 mph 2.3 mph 69 % 0.00 in
18:16 48.2 °F 38.5 °F 29.90 in West 0.1 mph 1.2 mph 69 % 0.00 in
18:26 48.1 °F 38.4 °F 29.90 in West 2.0 mph 3.5 mph 69 % 0.00 in
18:31 48.1 °F 37.7 °F 29.91 in WNW 1.8 mph 5.8 mph 67 % 0.00 in
18:36 48.1 °F 36.9 °F 29.91 in WNW 3.2 mph 8.0 mph 65 % 0.00 in
18:47 48.3 °F 36.3 °F 29.92 in WNW 4.1 mph 5.8 mph 63 % 0.00 in
18:52 48.5 °F 36.1 °F 29.92 in NW 3.7 mph 5.8 mph 62 % 0.00 in
18:57 48.6 °F 36.2 °F 29.92 in NW 1.4 mph 5.0 mph 62 % 0.00 in
19:02 48.6 °F 35.7 °F 29.93 in NNW 1.9 mph 5.0 mph 61 % 0.00 in
19:07 48.6 °F 36.6 °F 29.93 in North 4.3 mph 5.8 mph 63 % 0.00 in
19:17 48.4 °F 37.2 °F 29.92 in North 4.7 mph 7.0 mph 65 % 0.00 in
19:22 48.3 °F 37.5 °F 29.92 in NNE 4.0 mph 6.9 mph 66 % 0.00 in
19:27 48.1 °F 37.7 °F 29.93 in NNE 6.4 mph 10.4 mph 67 % 0.00 in
19:32 47.6 °F 37.6 °F 29.93 in NNE 6.2 mph 8.1 mph 68 % 0.00 in
19:38 47.2 °F 37.9 °F 29.93 in North 6.3 mph 8.1 mph 70 % 0.00 in
19:43 46.8 °F 37.5 °F 29.94 in NNW 4.9 mph 8.1 mph 70 % 0.00 in
19:48 46.5 °F 37.2 °F 29.94 in NNE 6.5 mph 10.4 mph 70 % 0.00 in
19:53 46.3 °F 36.3 °F 29.95 in NNW 6.8 mph 11.5 mph 68 % 0.00 in
19:58 46.2 °F 36.6 °F 29.95 in NNE 5.5 mph 11.5 mph 69 % 0.00 in
20:03 46.1 °F 36.5 °F 29.95 in NNE 7.0 mph 10.0 mph 69 % 0.00 in
20:08 45.9 °F 35.9 °F 29.95 in NNW 5.9 mph 9.2 mph 68 % 0.00 in
20:13 45.8 °F 35.5 °F 29.96 in North 6.5 mph 9.2 mph 67 % 0.00 in
20:18 45.8 °F 35.5 °F 29.95 in North 5.3 mph 9.2 mph 67 % 0.00 in
20:23 45.8 °F 35.5 °F 29.96 in NNE 4.8 mph 12.7 mph 67 % 0.00 in
20:29 45.8 °F 35.8 °F 29.96 in North 3.2 mph 8.1 mph 68 % 0.00 in
20:34 45.7 °F 35.7 °F 29.97 in North 2.2 mph 3.5 mph 68 % 0.00 in
20:39 45.5 °F 35.5 °F 29.97 in NNE 4.8 mph 10.4 mph 68 % 0.00 in
20:44 45.3 °F 35.4 °F 29.98 in NNE 2.9 mph 8.0 mph 68 % 0.00 in
20:49 45.2 °F 34.9 °F 29.98 in North 2.0 mph 3.5 mph 67 % 0.00 in
20:54 44.9 °F 34.6 °F 29.98 in NNW 5.4 mph 6.9 mph 67 % 0.00 in
20:59 44.9 °F 34.6 °F 29.99 in NNW 4.1 mph 8.1 mph 67 % 0.00 in
21:04 44.8 °F 34.1 °F 29.99 in NNE 4.2 mph 9.2 mph 66 % 0.00 in
21:09 44.8 °F 34.5 °F 29.99 in North 3.2 mph 6.9 mph 67 % 0.00 in
21:14 44.6 °F 34.7 °F 30.00 in North 3.5 mph 6.0 mph 68 % 0.00 in
21:25 44.3 °F 34.8 °F 30.00 in NNW 2.6 mph 4.6 mph 69 % 0.00 in
21:30 44.2 °F 35.0 °F 30.00 in NNW 3.2 mph 5.8 mph 70 % 0.00 in
21:35 44.1 °F 34.9 °F 30.00 in NNW 3.9 mph 8.1 mph 70 % 0.00 in
21:40 44.0 °F 34.8 °F 30.00 in North 3.3 mph 5.8 mph 70 % 0.00 in
21:45 43.8 °F 34.6 °F 30.00 in NNW 3.1 mph 5.8 mph 70 % 0.00 in
22:00 43.6 °F 34.1 °F 30.00 in NNE 4.9 mph 6.0 mph 69 % 0.00 in
22:05 43.5 °F 33.6 °F 30.00 in NNE 5.9 mph 12.7 mph 68 % 0.00 in
22:11 43.4 °F 33.9 °F 30.00 in NNE 5.2 mph 9.0 mph 69 % 0.00 in
22:16 43.3 °F 33.8 °F 30.01 in North 5.8 mph 7.0 mph 69 % 0.00 in
22:21 43.2 °F 33.3 °F 30.01 in NNE 6.0 mph 11.5 mph 68 % 0.00 in
22:26 43.2 °F 33.3 °F 30.02 in NE 6.1 mph 9.2 mph 68 % 0.00 in
22:31 43.1 °F 32.9 °F 30.02 in NE 3.7 mph 6.9 mph 67 % 0.00 in
22:36 43.1 °F 33.3 °F 30.02 in NE 3.7 mph 6.0 mph 68 % 0.00 in
22:41 43.0 °F 33.2 °F 30.03 in North 4.1 mph 6.0 mph 68 % 0.00 in
22:46 42.9 °F 33.4 °F 30.03 in ENE 1.5 mph 4.6 mph 69 % 0.00 in
22:51 42.8 °F 33.7 °F 30.03 in NNE 2.4 mph 4.6 mph 70 % 0.00 in
22:56 42.6 °F 33.5 °F 30.03 in NE 2.5 mph 3.5 mph 70 % 0.00 in
23:02 42.5 °F 33.4 °F 30.04 in NNE 1.9 mph 2.3 mph 70 % 0.00 in
23:07 42.4 °F 33.3 °F 30.04 in NNE 1.1 mph 2.3 mph 70 % 0.00 in
23:12 42.2 °F 33.5 °F 30.05 in Calm   2.3 mph 71 % 0.00 in
23:17 42.0 °F 33.3 °F 30.05 in NNE 0.2 mph 1.2 mph 71 % 0.00 in
23:22 41.8 °F 33.1 °F 30.06 in NNE 2.4 mph 3.5 mph 71 % 0.00 in
23:32 41.5 °F 32.1 °F 30.06 in North 1.1 mph 3.5 mph 69 % 0.00 in
23:37 41.4 °F 32.0 °F 30.06 in NNE 2.8 mph 3.5 mph 69 % 0.00 in
23:42 41.2 °F 31.8 °F 30.06 in NE 3.8 mph 5.8 mph 69 % 0.00 in
23:47 41.2 °F 31.4 °F 30.06 in North 3.9 mph 6.9 mph 68 % 0.00 in
23:53 41.1 °F 31.0 °F 30.07 in NNE 3.2 mph 4.6 mph 67 % 0.00 in
23:58 41.1 °F 31.0 °F 30.07 in North 3.7 mph 6.9 mph 67 % 0.00 in
Crab Meadow Weather
Compliments of Weather Underground - 2.75 mb

Script developed by  Jim McMurry - jmcmurry@mwt.net Adapted for the template by  Wim van der Kuil - Leuven-Template.eu

Astronomy: Our moon is moving away from the earth at about 3cm per year.